Time;durP1;ratioP1;P1;durP2;ratioP2;P2;SDS_P1;SDS_P2;PMS_P1;PMS_P2;Temp;Humidity;BMP_temperature;BMP_pressure;BME280_temperature;BME280_humidity;BME280_pressure;Samples;Min_cycle;Max_cycle;Signal;HPM_P1;HPM_P2
2022/01/09 00:00:59;;;;;;;97.70;62.30;;;;;;;;;;6246553;23;20301;-83
2022/01/09 00:03:29;;;;;;;118.45;70.25;;;;;;;;;;6219955;23;20530;-80
2022/01/09 00:05:55;;;;;;;75.35;49.67;;;;;;;;;;6219504;23;20008;-80
2022/01/09 00:08:24;;;;;;;70.75;46.35;;;;;;;;;;6246569;23;20000;-78
2022/01/09 00:11:01;;;;;;;61.78;42.13;;;;;;;;;;6246155;23;20075;-81
2022/01/09 00:13:27;;;;;;;49.55;35.33;;;;;;;;;;6246119;23;20007;-79
2022/01/09 00:15:53;;;;;;;51.40;37.20;;;;;;;;;;6246502;23;20007;-80
2022/01/09 00:18:19;;;;;;;43.63;33.58;;;;;;;;;;6246293;23;20064;-79
2022/01/09 00:20:46;;;;;;;50.60;35.90;;;;;;;;;;6246150;23;20004;-76
2022/01/09 00:23:12;;;;;;;46.50;34.47;;;;;;;;;;6219471;23;20035;-82
2022/01/09 00:25:39;;;;;;;60.10;41.03;;;;;;;;;;6245892;23;20011;-81
2022/01/09 00:28:05;;;;;;;48.90;33.55;;;;;;;;;;6246391;23;20005;-81
2022/01/09 00:30:31;;;;;;;49.13;35.33;;;;;;;;;;6246236;23;20000;-79
2022/01/09 00:32:57;;;;;;;44.78;32.85;;;;;;;;;;6219503;23;20011;-77
2022/01/09 00:35:23;;;;;;;48.55;35.35;;;;;;;;;;6219306;23;20416;-80
2022/01/09 00:37:49;;;;;;;43.28;33.67;;;;;;;;;;6245631;23;20020;-75
2022/01/09 00:40:16;;;;;;;47.08;33.83;;;;;;;;;;6246281;23;20130;-74
2022/01/09 00:42:42;;;;;;;44.95;32.97;;;;;;;;;;6245780;23;20000;-79
2022/01/09 00:45:08;;;;;;;42.30;32.05;;;;;;;;;;6219444;23;20053;-81
2022/01/09 00:47:37;;;;;;;43.15;31.98;;;;;;;;;;6245942;23;20327;-77
2022/01/09 00:50:04;;;;;;;45.20;32.28;;;;;;;;;;6245899;23;20066;-82
2022/01/09 00:52:30;;;;;;;46.90;34.03;;;;;;;;;;6245978;23;19996;-79
2022/01/09 00:54:58;;;;;;;44.50;32.28;;;;;;;;;;6245731;23;19997;-83
2022/01/09 00:57:25;;;;;;;45.50;32.53;;;;;;;;;;6219342;23;19996;-76
2022/01/09 00:59:51;;;;;;;44.45;33.58;;;;;;;;;;6245831;23;20428;-81
2022/01/09 01:02:17;;;;;;;46.25;33.40;;;;;;;;;;6246070;23;20367;-77
2022/01/09 01:04:44;;;;;;;44.90;32.30;;;;;;;;;;6245575;23;20018;-79
2022/01/09 01:07:12;;;;;;;45.80;33.53;;;;;;;;;;6219147;23;20008;-77
2022/01/09 01:09:38;;;;;;;41.63;31.05;;;;;;;;;;6245662;23;19996;-77
2022/01/09 01:12:05;;;;;;;41.17;29.65;;;;;;;;;;6245888;23;19996;-80
2022/01/09 01:14:35;;;;;;;42.85;31.88;;;;;;;;;;6245729;23;20436;-77
2022/01/09 01:17:04;;;;;;;47.58;32.95;;;;;;;;;;6245764;23;19996;-80
2022/01/09 01:19:35;;;;;;;46.25;31.15;;;;;;;;;;6218821;23;20015;-78
2022/01/09 01:22:03;;;;;;;51.38;34.38;;;;;;;;;;6245895;23;20432;-76
2022/01/09 01:24:29;;;;;;;49.05;34.78;;;;;;;;;;6218737;23;20000;-82
2022/01/09 01:26:56;;;;;;;51.72;35.47;;;;;;;;;;6245776;23;20340;-81
2022/01/09 01:29:22;;;;;;;48.40;33.78;;;;;;;;;;6219398;23;20471;-79
2022/01/09 01:31:48;;;;;;;53.08;36.58;;;;;;;;;;6245399;23;20014;-77
2022/01/09 01:34:14;;;;;;;51.42;33.65;;;;;;;;;;6218879;23;20034;-78
2022/01/09 01:36:41;;;;;;;49.70;33.30;;;;;;;;;;6218182;23;20010;-81
2022/01/09 01:39:07;;;;;;;47.97;34.03;;;;;;;;;;6245582;23;20105;-80
2022/01/09 01:41:33;;;;;;;46.67;33.35;;;;;;;;;;6245427;23;20428;-83
2022/01/09 01:43:59;;;;;;;50.78;34.53;;;;;;;;;;6218442;23;20340;-81
2022/01/09 01:46:26;;;;;;;51.22;31.38;;;;;;;;;;6245561;23;20012;-79
2022/01/09 01:48:54;;;;;;;48.67;33.50;;;;;;;;;;6218252;23;20382;-80
2022/01/09 01:51:21;;;;;;;50.20;33.88;;;;;;;;;;6218681;23;20087;-77
2022/01/09 01:53:49;;;;;;;44.85;33.10;;;;;;;;;;6245252;23;20046;-79
2022/01/09 01:56:20;;;;;;;50.55;33.60;;;;;;;;;;6245298;23;20013;-76
2022/01/09 01:58:46;;;;;;;66.60;39.38;;;;;;;;;;6218637;23;20004;-81
2022/01/09 02:01:15;;;;;;;48.28;33.38;;;;;;;;;;6245622;23;20004;-80
2022/01/09 02:03:41;;;;;;;50.65;31.98;;;;;;;;;;6244963;23;19996;-76
2022/01/09 02:06:07;;;;;;;61.90;37.70;;;;;;;;;;6245476;23;20004;-79
2022/01/09 02:08:36;;;;;;;52.47;35.45;;;;;;;;;;6244781;23;20004;-79
2022/01/09 02:11:02;;;;;;;43.47;32.33;;;;;;;;;;6245251;23;20336;-78
2022/01/09 02:13:28;;;;;;;52.92;35.83;;;;;;;;;;6245154;23;20000;-83
2022/01/09 02:15:58;;;;;;;52.00;34.85;;;;;;;;;;6244981;23;20008;-79
2022/01/09 02:18:25;;;;;;;46.75;34.75;;;;;;;;;;6245368;23;20068;-78
2022/01/09 02:20:52;;;;;;;48.70;33.63;;;;;;;;;;6244930;23;20026;-80
2022/01/09 02:23:23;;;;;;;45.05;32.40;;;;;;;;;;6245399;23;20351;-80
2022/01/09 02:25:52;;;;;;;51.85;35.92;;;;;;;;;;6244807;23;20000;-79
2022/01/09 02:28:19;;;;;;;46.35;32.63;;;;;;;;;;6245144;23;20004;-81
2022/01/09 02:30:49;;;;;;;46.25;32.83;;;;;;;;;;6245008;23;20012;-79
2022/01/09 02:33:17;;;;;;;42.53;32.28;;;;;;;;;;6245198;23;20007;-81
2022/01/09 02:35:43;;;;;;;44.25;34.53;;;;;;;;;;6244856;23;20063;-75
2022/01/09 02:38:09;;;;;;;43.28;33.47;;;;;;;;;;6244861;23;20016;-81
2022/01/09 02:40:36;;;;;;;44.70;31.30;;;;;;;;;;6245017;23;20130;-81
2022/01/09 02:43:03;;;;;;;44.63;32.17;;;;;;;;;;6245144;23;20000;-75
2022/01/09 02:45:30;;;;;;;43.60;31.77;;;;;;;;;;6244696;23;20030;-77
2022/01/09 02:47:58;;;;;;;48.13;33.72;;;;;;;;;;6218597;23;20004;-78
2022/01/09 02:52:55;;;;;;;46.42;34.00;;;;;;;;;;6255607;23;20046;-81
2022/01/09 02:55:24;;;;;;;46.47;34.03;;;;;;;;;;6245300;23;20000;-77
2022/01/09 02:57:53;;;;;;;47.70;33.80;;;;;;;;;;6218620;23;20000;-78
2022/01/09 03:00:24;;;;;;;45.42;31.58;;;;;;;;;;6245205;23;19996;-76
2022/01/09 03:02:53;;;;;;;41.03;31.27;;;;;;;;;;6245346;23;20014;-81
2022/01/09 03:05:21;;;;;;;48.53;34.33;;;;;;;;;;6245151;23;20010;-81
2022/01/09 03:07:48;;;;;;;56.17;38.13;;;;;;;;;;6245246;23;20008;-80
2022/01/09 03:10:16;;;;;;;52.00;35.53;;;;;;;;;;6218341;23;20420;-78
2022/01/09 03:12:44;;;;;;;50.47;35.08;;;;;;;;;;6245368;23;20011;-75
2022/01/09 03:15:14;;;;;;;54.70;36.22;;;;;;;;;;6245308;23;20435;-76
2022/01/09 03:17:40;;;;;;;54.55;34.33;;;;;;;;;;6245472;23;19996;-79
2022/01/09 03:20:08;;;;;;;53.33;34.97;;;;;;;;;;6245899;23;19996;-76
2022/01/09 03:22:34;;;;;;;45.53;31.13;;;;;;;;;;6247169;23;20067;-80
2022/01/09 03:25:00;;;;;;;56.30;33.65;;;;;;;;;;6220275;23;20046;-82
2022/01/09 03:27:29;;;;;;;60.15;35.75;;;;;;;;;;6247109;23;20029;-81
2022/01/09 03:29:55;;;;;;;68.50;39.33;;;;;;;;;;6246933;23;20043;-75
2022/01/09 03:32:21;;;;;;;56.60;32.10;;;;;;;;;;6246818;23;20004;-78
2022/01/09 03:34:48;;;;;;;60.55;35.75;;;;;;;;;;6246967;23;20058;-81
2022/01/09 03:37:14;;;;;;;60.58;32.25;;;;;;;;;;6246573;23;20020;-75
2022/01/09 03:39:40;;;;;;;65.30;34.85;;;;;;;;;;6246763;23;20023;-80
2022/01/09 03:42:06;;;;;;;65.85;36.33;;;;;;;;;;6247049;23;20031;-77
2022/01/09 03:44:33;;;;;;;60.55;32.10;;;;;;;;;;6246590;23;20059;-78
2022/01/09 03:46:59;;;;;;;65.22;34.88;;;;;;;;;;6220488;23;20004;-77
2022/01/09 03:49:25;;;;;;;57.75;32.58;;;;;;;;;;6247334;23;20158;-79
2022/01/09 03:51:52;;;;;;;65.25;36.33;;;;;;;;;;6247344;23;20376;-81
2022/01/09 03:54:22;;;;;;;52.72;33.38;;;;;;;;;;6247590;23;20007;-78
2022/01/09 03:56:49;;;;;;;61.45;39.17;;;;;;;;;;6248254;23;20030;-78
2022/01/09 03:59:16;;;;;;;51.22;34.30;;;;;;;;;;6247527;23;20023;-80
2022/01/09 04:01:42;;;;;;;62.17;37.00;;;;;;;;;;6246792;23;20049;-79
2022/01/09 04:04:08;;;;;;;60.45;37.47;;;;;;;;;;6246918;23;19995;-77
2022/01/09 04:06:45;;;;;;;56.47;34.08;;;;;;;;;;6246330;23;20455;-78
2022/01/09 04:09:18;;;;;;;51.50;32.47;;;;;;;;;;6246571;23;20071;-76
2022/01/09 04:11:45;;;;;;;51.72;32.90;;;;;;;;;;6247093;23;20432;-82
2022/01/09 04:14:14;;;;;;;49.45;31.73;;;;;;;;;;6248380;23;20007;-82
2022/01/09 04:16:41;;;;;;;50.72;33.83;;;;;;;;;;6247720;23;20011;-81
2022/01/09 04:19:12;;;;;;;50.33;33.17;;;;;;;;;;6220320;23;20011;-75
2022/01/09 04:21:39;;;;;;;52.92;33.60;;;;;;;;;;6247123;23;20024;-77
2022/01/09 04:24:06;;;;;;;51.03;34.75;;;;;;;;;;6247124;23;20008;-76
2022/01/09 04:26:32;;;;;;;56.67;35.92;;;;;;;;;;6246583;23;20011;-80
2022/01/09 04:28:58;;;;;;;50.80;33.75;;;;;;;;;;6246741;23;20031;-75
2022/01/09 04:31:24;;;;;;;53.20;35.00;;;;;;;;;;6220009;23;20031;-78
2022/01/09 04:33:52;;;;;;;53.15;35.05;;;;;;;;;;6246706;23;20011;-77
2022/01/09 04:36:19;;;;;;;52.45;33.85;;;;;;;;;;6246544;23;20039;-77
2022/01/09 04:38:45;;;;;;;52.78;33.85;;;;;;;;;;6219790;23;20056;-80
2022/01/09 04:41:11;;;;;;;47.58;31.92;;;;;;;;;;6246007;23;20010;-81
2022/01/09 04:43:37;;;;;;;59.88;37.03;;;;;;;;;;6246691;23;20010;-78
2022/01/09 04:46:06;;;;;;;50.17;32.92;;;;;;;;;;6246050;23;20477;-79
2022/01/09 04:48:32;;;;;;;52.15;32.78;;;;;;;;;;6247028;23;20002;-80
2022/01/09 04:50:58;;;;;;;54.78;32.90;;;;;;;;;;6219459;23;20083;-78
2022/01/09 04:53:27;;;;;;;50.03;33.00;;;;;;;;;;6219509;23;20004;-79
2022/01/09 04:55:53;;;;;;;49.95;33.00;;;;;;;;;;6245863;23;20443;-80
2022/01/09 05:02:17;;;;;;;;;;;;;;;;;;;;;
2022/01/09 07:59:32;;;;;;;49.00;31.58;;;;;;;;;;5958286;22;15138485;-78
2022/01/09 08:08:55;;;;;;;;;;;;;;;;;;;;;
2022/01/09 08:34:27;;;;;;;;;;;;;;;;;;;;;
2022/01/09 08:51:13;;;;;;;;;;;;;;;;;;;;;
2022/01/09 09:28:10;;;;;;;37.97;22.15;;;;;;;;;;5848030;24;20030;-80
2022/01/09 09:39:51;;;;;;;;;;;;;;;;;;;;;
2022/01/09 09:42:26;;;;;;;;;;;;;;;;;;6003964;23;20082;-78
2022/01/09 09:45:00;;;;;;;27.25;17.88;;;;;;;;;;6008534;23;19938;-77
2022/01/09 09:50:47;;;;;;;27.17;17.88;;;;;;;;;;5965227;23;20022;-79
2022/01/09 09:53:26;;;;;;;;;;;;;;;;;;;;;
2022/01/09 10:05:04;;;;;;;24.67;17.75;;;;;;;;;;6276651;22;20438;-76
2022/01/09 10:07:32;;;;;;;25.75;18.48;;;;;;;;;;6277353;22;20007;-79
2022/01/09 10:10:02;;;;;;;28.60;20.65;;;;;;;;;;6276895;22;20075;-77
2022/01/09 10:12:34;;;;;;;26.23;18.15;;;;;;;;;;6250102;22;20304;-76
2022/01/09 10:15:01;;;;;;;23.60;17.88;;;;;;;;;;6277566;22;20034;-78
2022/01/09 10:17:28;;;;;;;22.83;15.60;;;;;;;;;;6277615;22;20046;-79
2022/01/09 10:19:56;;;;;;;19.15;13.45;;;;;;;;;;6277208;22;20339;-83
2022/01/09 10:22:24;;;;;;;19.55;13.18;;;;;;;;;;6277007;22;20073;-80
2022/01/09 10:24:51;;;;;;;24.48;18.42;;;;;;;;;;6250232;22;20358;-79
2022/01/09 10:27:32;;;;;;;21.92;16.85;;;;;;;;;;6277002;22;20343;-79
2022/01/09 10:30:17;;;;;;;19.65;14.73;;;;;;;;;;6183659;23;20009;-80
2022/01/09 10:32:46;;;;;;;19.30;13.40;;;;;;;;;;6183355;23;20005;-80
2022/01/09 10:35:12;;;;;;;18.88;14.80;;;;;;;;;;6183701;23;20009;-79
2022/01/09 10:37:41;;;;;;;20.35;14.57;;;;;;;;;;6183369;23;20012;-79
2022/01/09 10:40:09;;;;;;;21.08;16.70;;;;;;;;;;6183733;23;20437;-79
2022/01/09 10:42:38;;;;;;;20.02;16.58;;;;;;;;;;6183686;23;20001;-78
2022/01/09 10:45:25;;;;;;;21.70;16.52;;;;;;;;;;6183225;23;20008;-79
2022/01/09 10:47:55;;;;;;;22.17;16.38;;;;;;;;;;6183816;23;20009;-78
2022/01/09 10:50:53;;;;;;;21.52;14.73;;;;;;;;;;6182735;23;20009;-80
2022/01/09 11:14:13;;;;;;;20.15;14.57;;;;;;;;;;6029931;23;20011;-79
2022/01/09 11:22:43;;;;;;;15.70;12.32;;;;;;;;;;6105330;23;20009;-78
2022/01/09 11:32:04;;;;;;;;;;;;;;;;;;;;;
2022/01/09 11:46:53;;;;;;;35.85;21.98;;;;;;;;;;5870745;24;20428;-79
2022/01/09 11:49:39;;;;;;;;;;;;;;;;;;;;;
2022/01/09 12:01:26;;;;;;;16.25;10.48;;;;;;;;;;6254408;22;20103;-80
2022/01/09 12:04:27;;;;;;;;;;;;;;;;;;;;;
2022/01/09 12:13:36;;;;;;;13.32;10.18;;;;;;;;;;5953342;24;20009;-80
2022/01/09 12:19:29;;;;;;;14.88;10.90;;;;;;;;;;5944406;24;20047;-81
2022/01/09 12:28:44;;;;;;;;;;;;;;;;;;;;;
2022/01/09 12:34:29;;;;;;;;;;;;;;;;;;;;;
2022/01/09 12:37:53;;;;;;;;;;;;;;;;;;;;;
2022/01/09 12:40:45;;;;;;;;;;;;;;;;;;;;;
2022/01/09 12:50:32;;;;;;;;;;;;;;;;;;;;;
2022/01/09 12:59:40;;;;;;;;;;;;;;;;;;;;;
2022/01/09 13:12:26;;;;;;;15.37;11.70;;;;;;;;;;6029153;23;20021;-79
2022/01/09 13:27:33;;;;;;;13.23;9.30;;;;;;;;;;6200090;23;20012;-80
2022/01/09 13:36:26;;;;;;;;;;;;;;;;;;;;;
2022/01/09 13:51:56;;;;;;;;;;;;;;;;;;;;;
2022/01/09 13:58:06;;;;;;;;;;;;;;;;;;;;;
2022/01/09 14:04:12;;;;;;;;;;;;;;;;;;;;;
2022/01/09 14:10:14;;;;;;;9.32;7.03;;;;;;;;;;6183883;23;20059;-80
2022/01/09 14:13:25;;;;;;;;;;;;;;;;;;;;;
2022/01/09 14:25:46;;;;;;;11.85;9.05;;;;;;;;;;6064563;23;20108;-79
2022/01/09 14:28:36;;;;;;;12.05;8.57;;;;;;;;;;6066240;23;20006;-81
2022/01/09 14:31:48;;;;;;;11.32;8.77;;;;;;;;;;6116603;23;20006;-80
2022/01/09 14:38:17;;;;;;;13.68;9.10;;;;;;;;;;6028031;23;20014;-80
2022/01/09 14:53:40;;;;;;;;;;;;;;;;;;;;;
2022/01/09 14:59:21;;;;;;;12.88;10.25;;;;;;;;;;6037646;23;20012;-80
2022/01/09 15:02:09;;;;;;;12.48;9.13;;;;;;;;;;5947697;23;20092;-79
2022/01/09 15:11:13;;;;;;;;;;;;;;;;;;;;;
2022/01/09 15:13:48;;;;;;;12.68;9.30;;;;;;;;;;6041494;23;20094;-80
2022/01/09 15:16:43;;;;;;;11.73;8.85;;;;;;;;;;6061659;23;20440;-79
2022/01/09 15:19:59;;;;;;;13.30;9.98;;;;;;;;;;6065074;23;20011;-80
2022/01/09 15:26:14;;;;;;;;;;;;;;;;;;;;;
2022/01/09 15:39:01;;;;;;;;;;;;;;;;;;;;;
2022/01/09 15:41:37;;;;;;;;;;;;;;;;;;;;;
2022/01/09 15:47:57;;;;;;;;;;;;;;;;;;;;;
2022/01/09 15:50:54;;;;;;;;;;;;;;;;;;;;;
2022/01/09 15:53:45;;;;;;;69.28;53.22;;;;;;;;;;5955486;24;20084;-79
2022/01/09 16:05:30;;;;;;;;;;;;;;;;;;;;;
2022/01/09 16:08:14;;;;;;;39.42;28.67;;;;;;;;;;6214439;22;20079;-79
2022/01/09 16:35:53;;;;;;;;;;;;;;;;;;;;;
2022/01/09 16:41:28;;;;;;;73.78;53.10;;;;;;;;;;5899341;24;19941;-79
2022/01/09 16:56:33;;;;;;;;;;;;;;;;;;;;;
2022/01/09 16:59:24;;;;;;;;;;;;;;;;;;;;;
2022/01/09 17:02:32;;;;;;;78.03;51.70;;;;;;;;;;5899236;24;20084;-78
2022/01/09 17:14:34;;;;;;;;;;;;;;;;;;;;;
2022/01/09 17:17:22;;;;;;;;;;;;;;;;;;;;;
2022/01/09 17:20:27;;;;;;;;;;;;;;;;;;;;;
2022/01/09 17:23:16;;;;;;;52.63;37.45;;;;;;;;;;5982035;24;20091;-79
2022/01/09 17:29:13;;;;;;;53.53;37.95;;;;;;;;;;6154429;23;20544;-79
2022/01/09 17:32:09;;;;;;;;;;;;;;;;;;;;;
2022/01/09 17:35:11;;;;;;;;;;;;;;;;;;;;;
2022/01/09 17:40:57;;;;;;;;;;;;;;;;;;;;;
2022/01/09 18:11:16;;;;;;;58.95;39.88;;;;;;;;;;6094631;23;20351;-78
2022/01/09 18:13:58;;;;;;;;;;;;;;;;;;;;;
2022/01/09 18:25:50;;;;;;;91.60;64.90;;;;;;;;;;6277386;22;20106;-79
2022/01/09 18:31:56;;;;;;;;;;;;;;;;;;;;;
2022/01/09 18:45:06;;;;;;;;;;;;;;;;;;;;;
2022/01/09 19:03:28;;;;;;;;;;;;;;;;;;;;;
2022/01/09 19:16:37;;;;;;;;;;;;;;;;;;;;;
2022/01/09 19:35:30;;;;;;;90.60;57.42;;;;;;;;;;5813623;24;20015;-79
2022/01/09 19:41:33;;;;;;;76.25;50.47;;;;;;;;;;5932543;24;20024;-79
2022/01/09 19:54:09;;;;;;;81.50;51.85;;;;;;;;;;5980601;24;20060;-80
2022/01/09 20:00:14;;;;;;;;;;;;;;;;;;;;;
2022/01/09 20:02:50;;;;;;;115.57;76.22;;;;;;;;;;5895209;24;20559;-79
2022/01/09 20:18:30;;;;;;;;;;;;;;;;;;;;;
2022/01/09 20:27:08;;;;;;;;;;;;;;;;;;;;;
2022/01/09 20:30:15;;;;;;;30.00;20.58;;;;;;;;;;5817162;24;20550;-79
2022/01/09 20:33:11;;;;;;;;;;;;;;;;;;;;;
2022/01/09 20:35:47;;;;;;;;;;;;;;;;;;;;;
2022/01/09 20:38:44;;;;;;;;;;;;;;;;;;;;;
2022/01/09 20:41:49;;;;;;;;;;;;;;;;;;;;;
2022/01/09 20:45:25;;;;;;;;;;;;;;;;;;;;;
2022/01/09 20:48:04;;;;;;;22.25;16.55;;;;;;;;;;6142420;23;20150;-82
2022/01/09 20:50:40;;;;;;;25.20;16.70;;;;;;;;;;6154359;23;20382;-78
2022/01/09 20:56:13;;;;;;;36.58;23.40;;;;;;;;;;6154773;23;20013;-80
2022/01/09 20:58:49;;;;;;;28.83;19.67;;;;;;;;;;6130217;23;20005;-80
2022/01/09 21:01:25;;;;;;;22.92;17.35;;;;;;;;;;6170258;22;20037;-76
2022/01/09 21:04:00;;;;;;;79.45;58.28;;;;;;;;;;6277839;22;20427;-79
2022/01/09 21:06:34;;;;;;;27.95;19.20;;;;;;;;;;6250684;22;20004;-78
2022/01/09 21:09:00;;;;;;;18.33;14.35;;;;;;;;;;6277943;22;19992;-79
2022/01/09 21:11:55;;;;;;;25.60;18.02;;;;;;;;;;6277939;22;20011;-76
2022/01/09 21:14:35;;;;;;;41.63;27.55;;;;;;;;;;6276869;22;20008;-79
2022/01/09 21:17:02;;;;;;;29.38;19.77;;;;;;;;;;6278012;22;19992;-77
2022/01/09 21:22:35;;;;;;;43.47;31.17;;;;;;;;;;6278011;22;20015;-80
2022/01/09 21:25:05;;;;;;;51.40;39.00;;;;;;;;;;6278057;22;20402;-81
2022/01/09 21:27:43;;;;;;;;;;;;;;;;;;;;;
2022/01/09 21:30:10;;;;;;;53.03;39.20;;;;;;;;;;6277960;22;20113;-78
2022/01/09 21:32:39;;;;;;;54.30;38.78;;;;;;;;;;6277928;22;20066;-80
2022/01/09 21:35:08;;;;;;;83.90;54.35;;;;;;;;;;6278519;22;20026;-78
2022/01/09 21:37:34;;;;;;;98.05;69.88;;;;;;;;;;6277814;22;20019;-79
2022/01/09 21:40:21;;;;;;;145.50;95.72;;;;;;;;;;6277634;22;20061;-79
2022/01/09 21:42:46;;;;;;;146.38;101.60;;;;;;;;;;6277058;22;20008;-79
2022/01/09 21:45:21;;;;;;;105.68;73.57;;;;;;;;;;6277709;22;20497;-82
2022/01/09 21:47:50;;;;;;;;;;;;;;;;;;6278392;22;20008;-77
2022/01/09 21:50:16;;;;;;;62.63;44.30;;;;;;;;;;6277579;22;19899;-79
2022/01/09 21:52:44;;;;;;;61.78;42.33;;;;;;;;;;6277722;22;20003;-78
2022/01/09 21:55:35;;;;;;;59.13;42.58;;;;;;;;;;6250876;22;20423;-78
2022/01/09 22:01:18;;;;;;;;;;;;;;;;;;;;;
2022/01/09 22:04:17;;;;;;;;;;;;;;;;;;;;;
2022/01/09 22:10:02;;;;;;;;;;;;;;;;;;;;;
2022/01/09 22:12:38;;;;;;;61.72;45.20;;;;;;;;;;6218626;22;20070;-78
2022/01/09 22:15:09;;;;;;;60.03;42.80;;;;;;;;;;6277524;22;20358;-78
2022/01/09 22:17:38;;;;;;;63.13;44.83;;;;;;;;;;6277394;22;19996;-77
2022/01/09 22:20:08;;;;;;;73.18;47.72;;;;;;;;;;6277514;22;20004;-77
2022/01/09 22:22:37;;;;;;;58.53;41.50;;;;;;;;;;6277630;22;20022;-76
2022/01/09 22:25:06;;;;;;;57.58;41.17;;;;;;;;;;6277296;22;20074;-76
2022/01/09 22:27:39;;;;;;;66.85;49.50;;;;;;;;;;6277260;22;20039;-78
2022/01/09 22:30:28;;;;;;;79.22;56.03;;;;;;;;;;6277290;22;20374;-77
2022/01/09 22:33:14;;;;;;;78.50;56.67;;;;;;;;;;6277271;22;20383;-77
2022/01/09 22:35:44;;;;;;;83.53;58.60;;;;;;;;;;6277368;22;19992;-77
2022/01/09 22:38:10;;;;;;;73.63;55.13;;;;;;;;;;6250498;22;20439;-77
2022/01/09 22:40:38;;;;;;;57.25;43.17;;;;;;;;;;6277473;22;20047;-77
2022/01/09 22:43:04;;;;;;;46.17;32.90;;;;;;;;;;6274188;22;20019;-76
2022/01/09 22:45:30;;;;;;;40.13;28.90;;;;;;;;;;6267888;22;20440;-76
2022/01/09 22:50:46;;;;;;;76.88;55.15;;;;;;;;;;6277153;22;20015;-76
2022/01/09 22:53:17;;;;;;;42.08;30.08;;;;;;;;;;6250410;22;20003;-77
2022/01/09 22:55:43;;;;;;;35.88;24.63;;;;;;;;;;6276984;22;20067;-76
2022/01/09 22:58:11;;;;;;;33.17;24.45;;;;;;;;;;6277031;22;20066;-76
2022/01/09 23:00:40;;;;;;;35.28;23.52;;;;;;;;;;6277328;22;20052;-77
2022/01/09 23:03:06;;;;;;;40.67;26.38;;;;;;;;;;6277400;22;20133;-76
2022/01/09 23:05:35;;;;;;;35.88;24.40;;;;;;;;;;6276884;22;20038;-77
2022/01/09 23:08:01;;;;;;;32.17;23.98;;;;;;;;;;6277109;22;20053;-77
2022/01/09 23:10:31;;;;;;;35.92;26.17;;;;;;;;;;6250454;22;20008;-77
2022/01/09 23:13:00;;;;;;;36.55;26.85;;;;;;;;;;6277385;22;20053;-77
2022/01/09 23:15:26;;;;;;;53.20;35.92;;;;;;;;;;6249663;22;20023;-77
2022/01/09 23:17:53;;;;;;;59.55;39.20;;;;;;;;;;6276843;22;20443;-77
2022/01/09 23:20:20;;;;;;;47.35;32.83;;;;;;;;;;6276859;22;19999;-77
2022/01/09 23:22:46;;;;;;;48.08;34.55;;;;;;;;;;6276707;22;20419;-76
2022/01/09 23:25:13;;;;;;;53.63;36.95;;;;;;;;;;6276816;22;20045;-77
2022/01/09 23:27:41;;;;;;;49.33;36.08;;;;;;;;;;6276817;22;20065;-77
2022/01/09 23:30:08;;;;;;;52.85;37.47;;;;;;;;;;6276432;22;20007;-77
2022/01/09 23:32:34;;;;;;;53.40;37.60;;;;;;;;;;6276633;22;20053;-76
2022/01/09 23:35:01;;;;;;;56.40;41.45;;;;;;;;;;6249344;22;20011;-76
2022/01/09 23:37:32;;;;;;;95.82;60.72;;;;;;;;;;6276464;22;20004;-77
2022/01/09 23:39:59;;;;;;;85.03;54.90;;;;;;;;;;6276331;22;20079;-75
2022/01/09 23:42:26;;;;;;;73.25;51.25;;;;;;;;;;6276680;22;20003;-76
2022/01/09 23:44:54;;;;;;;58.63;41.15;;;;;;;;;;6277224;22;20059;-75
2022/01/09 23:47:25;;;;;;;48.80;34.97;;;;;;;;;;6276721;22;20011;-76
2022/01/09 23:52:37;;;;;;;55.17;40.85;;;;;;;;;;6276708;22;20466;-75
2022/01/09 23:55:08;;;;;;;51.25;38.47;;;;;;;;;;6276920;22;20057;-75
2022/01/09 23:57:34;;;;;;;47.72;35.72;;;;;;;;;;6276662;22;20007;-76
